Time;durP1;ratioP1;P1;durP2;ratioP2;P2;SDS_P1;SDS_P2;PMS_P1;PMS_P2;Temp;Humidity;BMP_temperature;BMP_pressure;BME280_temperature;BME280_humidity;BME280_pressure;Samples;Min_cycle;Max_cycle;Signal;HPM_P1;HPM_P2
2022/04/14 00:03:52;;;;;;;33.75;23.30;;;;;;;;;;10424226;28;20937;-79
2022/04/14 00:08:55;;;;;;;31.27;22.77;;;;;;;;;;10422617;28;20447;-80
2022/04/14 00:13:57;;;;;;;29.80;23.37;;;;;;;;;;10422623;28;20422;-79
2022/04/14 00:18:59;;;;;;;27.90;22.67;;;;;;;;;;10421482;28;20417;-79
2022/04/14 00:24:02;;;;;;;29.75;23.25;;;;;;;;;;10421120;28;20428;-78
2022/04/14 00:29:04;;;;;;;30.08;23.08;;;;;;;;;;10422471;28;20768;-80
2022/04/14 00:34:05;;;;;;;27.58;22.10;;;;;;;;;;10422588;28;20937;-79
2022/04/14 00:39:09;;;;;;;31.70;23.95;;;;;;;;;;10419069;28;20408;-80
2022/04/14 00:44:11;;;;;;;31.33;25.05;;;;;;;;;;10421840;28;20438;-78
2022/04/14 00:49:14;;;;;;;37.40;26.60;;;;;;;;;;10420864;28;20459;-79
2022/04/14 00:54:18;;;;;;;33.73;24.33;;;;;;;;;;10421442;28;21092;-80
2022/04/14 00:59:20;;;;;;;35.73;25.20;;;;;;;;;;10421143;28;20407;-80
2022/04/14 01:04:21;;;;;;;32.78;25.13;;;;;;;;;;10420831;28;20433;-79
2022/04/14 01:09:28;;;;;;;34.45;26.55;;;;;;;;;;10421496;28;20917;-79
2022/04/14 01:14:31;;;;;;;32.70;25.55;;;;;;;;;;10420693;28;20411;-80
2022/04/14 01:19:33;;;;;;;34.45;26.40;;;;;;;;;;10419905;28;21667;-79
2022/04/14 01:24:37;;;;;;;35.67;26.57;;;;;;;;;;10421925;28;20423;-81
2022/04/14 01:29:39;;;;;;;34.45;26.35;;;;;;;;;;10421849;28;20396;-80
2022/04/14 01:34:41;;;;;;;35.00;26.53;;;;;;;;;;10422252;28;20415;-79
2022/04/14 01:39:44;;;;;;;32.78;26.30;;;;;;;;;;10426723;28;20403;-80
2022/04/14 01:44:46;;;;;;;34.10;25.10;;;;;;;;;;10428472;28;20423;-80
2022/04/14 01:49:48;;;;;;;34.40;26.58;;;;;;;;;;10427393;28;20400;-81
2022/04/14 01:54:51;;;;;;;33.53;26.38;;;;;;;;;;10428303;28;20403;-79
2022/04/14 01:59:53;;;;;;;35.67;25.77;;;;;;;;;;10427584;28;20407;-79
2022/04/14 02:04:55;;;;;;;34.10;26.10;;;;;;;;;;10431360;28;21257;-80
2022/04/14 02:09:58;;;;;;;33.75;26.23;;;;;;;;;;10432914;28;20395;-80
2022/04/14 02:14:59;;;;;;;34.38;25.58;;;;;;;;;;10431916;28;20422;-80
2022/04/14 02:20:01;;;;;;;35.42;25.67;;;;;;;;;;10432062;28;20418;-79
2022/04/14 02:25:05;;;;;;;34.37;25.27;;;;;;;;;;10432745;28;21029;-79
2022/04/14 02:30:08;;;;;;;33.33;25.00;;;;;;;;;;10431896;28;20495;-80
2022/04/14 02:35:10;;;;;;;33.80;25.25;;;;;;;;;;10431946;28;20407;-79
2022/04/14 02:40:14;;;;;;;30.13;22.98;;;;;;;;;;10455258;22;20424;-95
2022/04/14 02:45:16;;;;;;;31.52;22.33;;;;;;;;;;10445931;28;20420;-95
2022/04/14 02:50:19;;;;;;;29.53;22.73;;;;;;;;;;10444299;28;20551;-95
2022/04/14 02:55:23;;;;;;;31.30;22.67;;;;;;;;;;10445870;28;20462;-94
2022/04/14 03:00:25;;;;;;;28.73;21.73;;;;;;;;;;10445427;28;20513;-95
2022/04/14 03:05:27;;;;;;;29.00;21.93;;;;;;;;;;10444094;28;20451;-95
2022/04/14 03:10:30;;;;;;;29.67;22.17;;;;;;;;;;10445675;28;20414;-95
2022/04/14 03:15:32;;;;;;;31.17;22.00;;;;;;;;;;10443536;28;20416;-95
2022/04/14 03:20:34;;;;;;;30.15;22.35;;;;;;;;;;10444517;28;20465;-95
2022/04/14 03:25:38;;;;;;;29.35;21.52;;;;;;;;;;10444405;28;20423;-96
2022/04/14 03:30:39;;;;;;;27.90;22.52;;;;;;;;;;10445301;28;20441;-95
2022/04/14 03:35:41;;;;;;;33.30;23.40;;;;;;;;;;10447873;28;20457;-94
2022/04/14 03:40:45;;;;;;;28.83;22.05;;;;;;;;;;10447608;28;20446;-94
2022/04/14 03:45:46;;;;;;;29.37;22.00;;;;;;;;;;10448274;28;20547;-94
2022/04/14 03:50:48;;;;;;;30.70;21.55;;;;;;;;;;10449155;28;20435;-94
2022/04/14 03:55:52;;;;;;;26.88;19.88;;;;;;;;;;10448866;28;20434;-95
2022/04/14 04:00:54;;;;;;;24.83;19.33;;;;;;;;;;10446904;28;20430;-95
2022/04/14 04:05:56;;;;;;;22.67;18.23;;;;;;;;;;10439850;28;20422;-95
2022/04/14 04:10:59;;;;;;;23.30;16.75;;;;;;;;;;10447808;28;20486;-94
2022/04/14 04:16:01;;;;;;;21.10;16.40;;;;;;;;;;10447388;28;20876;-94
2022/04/14 04:21:03;;;;;;;21.80;16.50;;;;;;;;;;10445876;28;20498;-95
2022/04/14 04:26:06;;;;;;;23.35;16.25;;;;;;;;;;10445852;28;20428;-92
2022/04/14 04:31:08;;;;;;;20.17;15.70;;;;;;;;;;10444076;28;20495;-94
2022/04/14 04:36:11;;;;;;;20.25;14.80;;;;;;;;;;10446263;28;20413;-95
2022/04/14 04:41:14;;;;;;;19.67;14.18;;;;;;;;;;10444314;28;21385;-94
2022/04/14 04:46:16;;;;;;;24.80;15.83;;;;;;;;;;10446873;28;20444;-94
2022/04/14 04:51:18;;;;;;;24.23;16.25;;;;;;;;;;10447571;28;20438;-95
2022/04/14 04:56:22;;;;;;;30.75;18.80;;;;;;;;;;10435373;28;20486;-95
2022/04/14 05:01:24;;;;;;;27.80;19.50;;;;;;;;;;10447499;28;20419;-93
2022/04/14 05:06:25;;;;;;;25.02;18.42;;;;;;;;;;10461082;28;20419;-95
2022/04/14 05:11:29;;;;;;;25.60;17.80;;;;;;;;;;10457283;28;20489;-95
2022/04/14 05:16:31;;;;;;;26.35;17.80;;;;;;;;;;10455028;28;20490;-94
2022/04/14 05:21:33;;;;;;;23.67;17.10;;;;;;;;;;10451349;28;20437;-94
2022/04/14 05:26:37;;;;;;;24.58;17.30;;;;;;;;;;10443413;28;20502;-95
2022/04/14 05:31:39;;;;;;;23.53;16.30;;;;;;;;;;10445323;28;20415;-95
2022/04/14 05:36:41;;;;;;;24.05;16.33;;;;;;;;;;10444173;28;20451;-94
2022/04/14 05:41:44;;;;;;;25.52;16.77;;;;;;;;;;10448836;28;20446;-93
2022/04/14 05:46:46;;;;;;;24.65;18.08;;;;;;;;;;10437376;28;20426;-94
2022/04/14 05:51:48;;;;;;;25.00;17.30;;;;;;;;;;10441905;28;20435;-93
2022/04/14 05:56:52;;;;;;;23.08;17.00;;;;;;;;;;10438082;28;20491;-93
2022/04/14 06:01:53;;;;;;;19.92;15.52;;;;;;;;;;10444871;28;20419;-94
2022/04/14 06:06:55;;;;;;;20.17;15.70;;;;;;;;;;10434779;28;20934;-95
2022/04/14 06:11:59;;;;;;;21.07;16.17;;;;;;;;;;10433533;28;20434;-96
2022/04/14 06:17:01;;;;;;;21.45;14.73;;;;;;;;;;10441625;28;20554;-90
2022/04/14 06:22:04;;;;;;;16.60;12.70;;;;;;;;;;10435821;28;20506;-95
2022/04/14 06:27:07;;;;;;;21.88;13.57;;;;;;;;;;10411742;28;20444;-94
2022/04/14 06:32:10;;;;;;;20.33;13.57;;;;;;;;;;10425246;28;20421;-94
2022/04/14 06:37:12;;;;;;;18.23;12.77;;;;;;;;;;10439951;28;20443;-94
2022/04/14 06:42:15;;;;;;;19.77;12.07;;;;;;;;;;10451267;28;20671;-93
2022/04/14 06:47:17;;;;;;;22.43;12.80;;;;;;;;;;10451440;28;20504;-94
2022/04/14 06:52:19;;;;;;;14.98;12.23;;;;;;;;;;10451724;28;20809;-94
2022/04/14 06:57:22;;;;;;;17.13;12.80;;;;;;;;;;10412802;28;20437;-94
2022/04/14 07:02:24;;;;;;;18.85;13.85;;;;;;;;;;10440674;28;20506;-95
2022/04/14 07:07:26;;;;;;;16.35;13.02;;;;;;;;;;10436421;28;20498;-93
2022/04/14 07:12:29;;;;;;;14.20;12.55;;;;;;;;;;10438155;28;20411;-95
2022/04/14 07:17:31;;;;;;;15.25;13.23;;;;;;;;;;10449510;28;20491;-94
2022/04/14 07:22:42;;;;;;;15.63;12.90;;;;;;;;;;10449697;28;20427;-93
2022/04/14 07:27:47;;;;;;;14.35;12.55;;;;;;;;;;10452604;28;20423;-93
2022/04/14 07:32:52;;;;;;;15.35;11.75;;;;;;;;;;10433919;28;20423;-92
2022/04/14 07:37:54;;;;;;;14.02;10.80;;;;;;;;;;10429531;28;20430;-90
2022/04/14 07:42:58;;;;;;;16.13;11.00;;;;;;;;;;10429921;28;20823;-93
2022/04/14 07:48:00;;;;;;;18.88;12.70;;;;;;;;;;10431340;28;20504;-92
2022/04/14 07:53:02;;;;;;;16.27;12.57;;;;;;;;;;10427607;28;20702;-91
2022/04/14 07:58:07;;;;;;;14.77;12.55;;;;;;;;;;10409792;28;20419;-91
2022/04/14 08:03:10;;;;;;;17.95;12.60;;;;;;;;;;10427495;28;20412;-91
2022/04/14 08:08:13;;;;;;;18.98;12.68;;;;;;;;;;10429786;28;20416;-91
2022/04/14 08:13:18;;;;;;;15.68;11.40;;;;;;;;;;10429997;28;20408;-91
2022/04/14 08:18:20;;;;;;;15.10;10.37;;;;;;;;;;10425258;28;20419;-92
2022/04/14 08:23:22;;;;;;;14.35;10.70;;;;;;;;;;10432946;28;20506;-92
2022/04/14 08:28:25;;;;;;;13.05;9.85;;;;;;;;;;10434294;28;20416;-92
2022/04/14 08:33:29;;;;;;;16.27;10.80;;;;;;;;;;10450205;28;20473;-92
2022/04/14 08:38:31;;;;;;;16.35;9.88;;;;;;;;;;10435487;28;20433;-92
2022/04/14 08:43:37;;;;;;;12.10;8.98;;;;;;;;;;10438758;28;21103;-91
2022/04/14 08:48:41;;;;;;;15.13;10.48;;;;;;;;;;10451511;28;20420;-92
2022/04/14 08:53:43;;;;;;;14.85;10.98;;;;;;;;;;10453970;28;20462;-91
2022/04/14 08:58:48;;;;;;;14.17;9.67;;;;;;;;;;10487399;28;20577;-92
2022/04/14 09:03:55;;;;;;;16.40;9.53;;;;;;;;;;10456719;28;20404;-92
2022/04/14 09:08:59;;;;;;;11.43;9.02;;;;;;;;;;10447811;28;20798;-91
2022/04/14 09:14:03;;;;;;;11.57;8.57;;;;;;;;;;10447332;28;20408;-93
2022/04/14 09:19:05;;;;;;;15.40;10.25;;;;;;;;;;10430709;28;20939;-91
2022/04/14 09:24:08;;;;;;;13.05;8.48;;;;;;;;;;10426839;28;20417;-92
2022/04/14 09:29:11;;;;;;;11.50;7.00;;;;;;;;;;10425889;28;20408;-93
2022/04/14 09:34:15;;;;;;;9.63;7.20;;;;;;;;;;10435520;28;20411;-93
2022/04/14 09:39:18;;;;;;;11.35;7.95;;;;;;;;;;10422357;28;20922;-93
2022/04/14 09:44:24;;;;;;;10.23;8.50;;;;;;;;;;10424513;28;20443;-93
2022/04/14 09:49:27;;;;;;;14.73;9.77;;;;;;;;;;10422930;28;20422;-93
2022/04/14 09:54:30;;;;;;;12.98;7.47;;;;;;;;;;10435309;28;20404;-94
2022/04/14 09:59:37;;;;;;;12.13;8.20;;;;;;;;;;10442920;28;20408;-93
2022/04/14 10:04:40;;;;;;;8.57;6.00;;;;;;;;;;10437365;28;20419;-92
2022/04/14 10:09:45;;;;;;;9.33;6.37;;;;;;;;;;10435383;28;20986;-93
2022/04/14 10:14:59;;;;;;;8.38;6.28;;;;;;;;;;10439190;28;20418;-94
2022/04/14 10:20:03;;;;;;;10.68;6.47;;;;;;;;;;10435550;28;20403;-94
2022/04/14 10:25:07;;;;;;;13.40;7.63;;;;;;;;;;10439293;28;20903;-93
2022/04/14 10:30:12;;;;;;;10.50;7.45;;;;;;;;;;10435351;28;20453;-94
2022/04/14 10:35:15;;;;;;;10.18;7.22;;;;;;;;;;10435339;28;20410;-93
2022/04/14 10:40:17;;;;;;;11.98;7.25;;;;;;;;;;10429043;28;20427;-93
2022/04/14 10:45:22;;;;;;;9.10;6.38;;;;;;;;;;10429966;28;20496;-91
2022/04/14 10:50:27;;;;;;;8.93;6.10;;;;;;;;;;10426442;28;20514;-93
2022/04/14 10:55:37;;;;;;;8.77;5.88;;;;;;;;;;10421658;28;20480;-94
2022/04/14 11:00:41;;;;;;;10.57;6.30;;;;;;;;;;10430244;28;20412;-94
2022/04/14 11:05:48;;;;;;;10.40;6.97;;;;;;;;;;10434316;28;20423;-93
2022/04/14 11:10:55;;;;;;;11.88;7.85;;;;;;;;;;10435317;28;20457;-94
2022/04/14 11:15:59;;;;;;;8.68;6.00;;;;;;;;;;10419318;28;20421;-93
2022/04/14 11:21:01;;;;;;;9.02;5.90;;;;;;;;;;10429297;28;20461;-94
2022/04/14 11:26:11;;;;;;;7.90;5.77;;;;;;;;;;10445622;28;20503;-95
2022/04/14 11:31:33;;;;;;;9.02;5.93;;;;;;;;;;10444958;28;20785;-94
2022/04/14 11:36:46;;;;;;;8.60;5.47;;;;;;;;;;10427524;28;20514;-95
2022/04/14 11:41:50;;;;;;;9.25;6.60;;;;;;;;;;10422269;28;20413;-95
2022/04/14 11:46:58;;;;;;;8.47;5.50;;;;;;;;;;10440258;28;20893;-94
2022/04/14 11:52:04;;;;;;;7.15;4.78;;;;;;;;;;10445171;28;20412;-92
2022/04/14 11:57:10;;;;;;;8.18;4.72;;;;;;;;;;10447327;28;20407;-92
2022/04/14 12:02:18;;;;;;;5.43;4.40;;;;;;;;;;10451113;28;20404;-93
2022/04/14 12:07:25;;;;;;;9.23;5.72;;;;;;;;;;10449773;28;20411;-94
2022/04/14 12:12:33;;;;;;;6.60;4.60;;;;;;;;;;10442887;28;20408;-93
2022/04/14 12:17:41;;;;;;;9.43;6.07;;;;;;;;;;10448983;28;20419;-94
2022/04/14 12:22:49;;;;;;;12.00;6.50;;;;;;;;;;10433327;28;20442;-93
2022/04/14 12:27:55;;;;;;;9.83;6.80;;;;;;;;;;10446978;28;21185;-94
2022/04/14 12:33:07;;;;;;;10.43;6.07;;;;;;;;;;10448023;28;20519;-94
2022/04/14 12:38:13;;;;;;;7.65;5.70;;;;;;;;;;10430443;28;20417;-93
2022/04/14 12:43:22;;;;;;;10.00;4.95;;;;;;;;;;10421072;28;23128;-94
2022/04/14 12:48:36;;;;;;;8.13;4.68;;;;;;;;;;10429747;28;20497;-95
2022/04/14 12:53:38;;;;;;;7.00;4.18;;;;;;;;;;10429328;28;20454;-94
2022/04/14 12:58:40;;;;;;;8.03;5.50;;;;;;;;;;10427981;28;20514;-95
2022/04/14 13:03:50;;;;;;;10.73;5.65;;;;;;;;;;10438035;28;20443;-96
2022/04/14 13:08:52;;;;;;;9.40;4.70;;;;;;;;;;10433313;28;20571;-96
2022/04/14 13:13:54;;;;;;;7.73;4.40;;;;;;;;;;10438290;28;20503;-95
2022/04/14 13:18:58;;;;;;;6.28;3.42;;;;;;;;;;10434504;28;20399;-95
2022/04/14 13:24:00;;;;;;;8.03;5.10;;;;;;;;;;10432945;28;20502;-96
2022/04/14 13:29:02;;;;;;;7.70;5.17;;;;;;;;;;10440538;28;20465;-96
2022/04/14 13:34:06;;;;;;;8.73;5.65;;;;;;;;;;10442537;28;20442;-96
2022/04/14 13:39:08;;;;;;;7.57;4.60;;;;;;;;;;10437163;28;20415;-96
2022/04/14 13:44:18;;;;;;;9.45;5.03;;;;;;;;;;10449842;28;20500;-96
2022/04/14 13:49:23;;;;;;;9.48;4.68;;;;;;;;;;10454499;28;20438;-96
2022/04/14 13:54:25;;;;;;;10.10;5.55;;;;;;;;;;10456956;28;20407;-96
2022/04/14 13:59:28;;;;;;;7.68;4.30;;;;;;;;;;10449393;28;20410;-96
2022/04/14 14:04:32;;;;;;;6.43;3.70;;;;;;;;;;10453412;28;20519;-96
2022/04/14 14:09:35;;;;;;;7.67;3.90;;;;;;;;;;10452951;28;20419;-96
2022/04/14 14:14:38;;;;;;;6.32;3.60;;;;;;;;;;10460093;28;20416;-96
2022/04/14 14:19:42;;;;;;;6.40;3.90;;;;;;;;;;10447915;28;20409;-94
2022/04/14 14:24:45;;;;;;;9.90;5.32;;;;;;;;;;10439580;28;20457;-96
2022/04/14 14:29:47;;;;;;;10.93;5.93;;;;;;;;;;10430369;28;20416;-95
2022/04/14 14:40:20;;;;;;;6.90;4.10;;;;;;;;;;10469416;28;20440;-96
2022/04/14 14:51:30;;;;;;;9.73;5.73;;;;;;;;;;10471783;28;20414;-96
2022/04/14 15:09:01;;;;;;;16.45;9.68;;;;;;;;;;10497635;28;20415;-96
2022/04/14 15:25:38;;;;;;;14.70;8.82;;;;;;;;;;10471737;28;20530;-96
2022/04/14 15:30:44;;;;;;;15.55;8.52;;;;;;;;;;10483668;28;20411;-96
2022/04/14 15:41:08;;;;;;;17.17;8.27;;;;;;;;;;10462181;28;20452;-96
2022/04/14 15:46:14;;;;;;;11.47;6.80;;;;;;;;;;10442551;28;20405;-96
2022/04/14 15:51:20;;;;;;;12.80;7.13;;;;;;;;;;10447784;28;20411;-96
2022/04/14 15:56:25;;;;;;;14.30;7.55;;;;;;;;;;10458852;28;20415;-96
2022/04/14 16:01:30;;;;;;;18.08;7.18;;;;;;;;;;10459232;28;20400;-96
2022/04/14 16:06:33;;;;;;;13.02;7.07;;;;;;;;;;10457038;28;20407;-96
2022/04/14 16:16:57;;;;;;;13.20;6.88;;;;;;;;;;10459749;28;20387;-96
2022/04/14 16:21:59;;;;;;;14.20;6.82;;;;;;;;;;10451579;28;20791;-96
2022/04/14 16:27:01;;;;;;;10.38;5.75;;;;;;;;;;10460865;28;20477;-95
2022/04/14 16:32:11;;;;;;;9.50;4.53;;;;;;;;;;10456647;28;20442;-96
2022/04/14 16:37:14;;;;;;;7.20;4.03;;;;;;;;;;10428864;28;20432;-96
2022/04/14 16:42:22;;;;;;;7.10;4.20;;;;;;;;;;10436737;28;20925;-96
2022/04/14 16:47:27;;;;;;;11.05;3.72;;;;;;;;;;10430645;28;20429;-96
2022/04/14 16:52:31;;;;;;;9.13;4.53;;;;;;;;;;10426430;28;20512;-95
2022/04/14 16:57:34;;;;;;;8.60;4.07;;;;;;;;;;10423839;28;20475;-96
2022/04/14 17:02:39;;;;;;;10.68;5.50;;;;;;;;;;10431245;28;20416;-95
2022/04/14 17:07:41;;;;;;;10.77;5.43;;;;;;;;;;10440217;28;20922;-95
2022/04/14 17:12:43;;;;;;;10.80;5.57;;;;;;;;;;10441326;28;20415;-96
2022/04/14 17:17:50;;;;;;;12.15;5.45;;;;;;;;;;10440368;28;20524;-96
2022/04/14 17:28:15;;;;;;;11.37;5.63;;;;;;;;;;10456137;28;20501;-96
2022/04/14 17:33:22;;;;;;;13.45;5.95;;;;;;;;;;10454846;28;20461;-95
2022/04/14 17:38:25;;;;;;;14.77;7.13;;;;;;;;;;10448867;28;20415;-91
2022/04/14 17:43:31;;;;;;;14.40;7.32;;;;;;;;;;10435483;28;20411;-94
2022/04/14 17:48:57;;;;;;;14.45;6.95;;;;;;;;;;10441740;28;20434;-95
2022/04/14 17:53:59;;;;;;;15.85;7.03;;;;;;;;;;10432819;28;20451;-95
2022/04/14 17:59:01;;;;;;;19.05;7.85;;;;;;;;;;10434235;28;20416;-94
2022/04/14 18:04:05;;;;;;;15.03;7.47;;;;;;;;;;10427502;28;20415;-94
2022/04/14 18:09:08;;;;;;;14.87;8.00;;;;;;;;;;10422620;28;20436;-96
2022/04/14 18:14:10;;;;;;;17.98;8.85;;;;;;;;;;10431405;28;20971;-94
2022/04/14 18:19:13;;;;;;;14.15;8.23;;;;;;;;;;10430440;28;20457;-94
2022/04/14 18:24:15;;;;;;;14.25;7.45;;;;;;;;;;10436100;28;20843;-93
2022/04/14 18:29:17;;;;;;;13.98;7.70;;;;;;;;;;10458683;28;20915;-95
2022/04/14 18:34:21;;;;;;;14.97;8.20;;;;;;;;;;10451938;28;20451;-95
2022/04/14 18:39:23;;;;;;;14.37;8.30;;;;;;;;;;10444442;28;20456;-95
2022/04/14 18:44:25;;;;;;;13.67;8.40;;;;;;;;;;10425389;28;20413;-93
2022/04/14 18:49:28;;;;;;;14.02;8.60;;;;;;;;;;10424858;28;20426;-91
2022/04/14 18:54:30;;;;;;;14.43;9.00;;;;;;;;;;10428444;28;20439;-91
2022/04/14 18:59:32;;;;;;;14.30;8.30;;;;;;;;;;10424737;28;20437;-89
2022/04/14 19:04:36;;;;;;;16.48;8.15;;;;;;;;;;10425078;28;20413;-89
2022/04/14 19:09:38;;;;;;;13.80;8.68;;;;;;;;;;10425731;28;20428;-90
2022/04/14 19:14:54;;;;;;;16.55;9.63;;;;;;;;;;10424731;28;20445;-89
2022/04/14 19:19:57;;;;;;;14.87;9.33;;;;;;;;;;10433196;28;20906;-90
2022/04/14 19:24:59;;;;;;;18.07;9.90;;;;;;;;;;10427432;28;20413;-89
2022/04/14 19:30:01;;;;;;;13.77;9.30;;;;;;;;;;10424809;28;20432;-89
2022/04/14 19:35:09;;;;;;;13.80;9.30;;;;;;;;;;10431408;28;20442;-89
2022/04/14 19:40:12;;;;;;;14.77;9.63;;;;;;;;;;10425341;28;20886;-88
2022/04/14 19:45:14;;;;;;;14.10;10.10;;;;;;;;;;10421537;28;20455;-90
2022/04/14 19:50:18;;;;;;;16.27;10.50;;;;;;;;;;10423198;28;21344;-90
2022/04/14 19:55:20;;;;;;;15.13;11.27;;;;;;;;;;10422241;28;20803;-88
2022/04/14 20:00:22;;;;;;;16.48;11.93;;;;;;;;;;10421774;28;20438;-89
2022/04/14 20:05:26;;;;;;;16.30;11.85;;;;;;;;;;10426342;28;20502;-90
2022/04/14 20:10:28;;;;;;;17.05;11.73;;;;;;;;;;10433815;28;20415;-89
2022/04/14 20:15:30;;;;;;;17.90;13.00;;;;;;;;;;10420367;28;20507;-88
2022/04/14 20:20:34;;;;;;;17.00;12.27;;;;;;;;;;10448611;28;20427;-90
2022/04/14 20:25:36;;;;;;;18.13;13.32;;;;;;;;;;10462131;28;20416;-89
2022/04/14 20:30:38;;;;;;;19.13;13.73;;;;;;;;;;10437568;28;20513;-88
2022/04/14 20:35:43;;;;;;;18.98;13.75;;;;;;;;;;10440210;28;20495;-89
2022/04/14 20:40:46;;;;;;;18.70;13.55;;;;;;;;;;10440368;28;20399;-92
2022/04/14 20:45:48;;;;;;;22.17;13.73;;;;;;;;;;10439488;28;20427;-91
2022/04/14 20:50:51;;;;;;;18.52;13.57;;;;;;;;;;10435958;28;20494;-90
2022/04/14 20:55:53;;;;;;;20.92;14.07;;;;;;;;;;10439701;28;20455;-92
2022/04/14 21:00:55;;;;;;;19.48;14.27;;;;;;;;;;10439010;28;20927;-91
2022/04/14 21:05:58;;;;;;;17.77;13.70;;;;;;;;;;10439060;28;20423;-90
2022/04/14 21:11:00;;;;;;;18.13;13.63;;;;;;;;;;10440141;28;20430;-91
2022/04/14 21:16:02;;;;;;;19.65;14.88;;;;;;;;;;10439988;28;20814;-90
2022/04/14 21:21:05;;;;;;;19.90;15.05;;;;;;;;;;10439741;28;20497;-90
2022/04/14 21:26:07;;;;;;;22.23;15.48;;;;;;;;;;10430657;28;20407;-90
2022/04/14 21:31:09;;;;;;;20.85;15.68;;;;;;;;;;10438390;28;20504;-90
2022/04/14 21:36:13;;;;;;;22.13;15.77;;;;;;;;;;10441968;28;20411;-91
2022/04/14 21:41:15;;;;;;;20.43;15.53;;;;;;;;;;10441993;28;20454;-91
2022/04/14 21:46:17;;;;;;;20.45;16.13;;;;;;;;;;10440306;28;20412;-90
2022/04/14 21:51:20;;;;;;;21.65;16.80;;;;;;;;;;10440379;28;20419;-90
2022/04/14 21:56:22;;;;;;;27.10;17.92;;;;;;;;;;10446150;28;20477;-92
2022/04/14 22:01:26;;;;;;;25.38;18.85;;;;;;;;;;10452466;28;20515;-91
2022/04/14 22:06:31;;;;;;;24.20;19.30;;;;;;;;;;10445556;28;20423;-90
2022/04/14 22:11:33;;;;;;;24.25;19.15;;;;;;;;;;10434155;28;20415;-91
2022/04/14 22:16:35;;;;;;;25.33;18.87;;;;;;;;;;10449157;28;20491;-91
2022/04/14 22:21:38;;;;;;;27.00;18.70;;;;;;;;;;10449355;28;20411;-92
2022/04/14 22:26:40;;;;;;;25.55;19.17;;;;;;;;;;10448823;28;20448;-89
2022/04/14 22:31:42;;;;;;;24.95;18.70;;;;;;;;;;10448896;28;20491;-91
2022/04/14 22:36:45;;;;;;;23.13;17.83;;;;;;;;;;10448831;28;20534;-91
2022/04/14 22:41:47;;;;;;;24.98;19.60;;;;;;;;;;10448403;28;20842;-91
2022/04/14 22:46:49;;;;;;;22.52;17.80;;;;;;;;;;10448722;28;20820;-90
2022/04/14 22:51:53;;;;;;;25.63;19.23;;;;;;;;;;10447715;28;20404;-89
2022/04/14 22:56:55;;;;;;;24.90;19.25;;;;;;;;;;10448588;28;20403;-92
2022/04/14 23:01:57;;;;;;;26.48;20.17;;;;;;;;;;10448176;28;20427;-91
2022/04/14 23:07:00;;;;;;;28.02;19.90;;;;;;;;;;10446527;28;20403;-91
2022/04/14 23:12:02;;;;;;;25.90;19.80;;;;;;;;;;10446819;28;20498;-90
2022/04/14 23:17:04;;;;;;;29.05;19.88;;;;;;;;;;10447907;28;20502;-91
2022/04/14 23:22:07;;;;;;;23.77;18.95;;;;;;;;;;10447360;28;20811;-91
2022/04/14 23:27:09;;;;;;;24.80;19.10;;;;;;;;;;10447344;28;20422;-91
2022/04/14 23:32:11;;;;;;;27.10;19.43;;;;;;;;;;10447175;28;20958;-90
2022/04/14 23:37:14;;;;;;;26.92;19.58;;;;;;;;;;10447144;28;20439;-89
2022/04/14 23:42:16;;;;;;;28.33;20.85;;;;;;;;;;10447405;28;20420;-90
2022/04/14 23:47:18;;;;;;;27.43;20.17;;;;;;;;;;10446438;28;20453;-91
2022/04/14 23:52:21;;;;;;;29.38;20.52;;;;;;;;;;10447463;28;20414;-90
2022/04/14 23:57:23;;;;;;;27.85;20.77;;;;;;;;;;10474302;28;20638;-91
